sensor_id;sensor_type;location;lat;lon;timestamp;temperature;humidity
39255;DHT22;24957;51.386;-2.352;2022-07-23T00:01:34;17.10;99.90
39255;DHT22;24957;51.386;-2.352;2022-07-23T00:04:00;17.10;99.90
39255;DHT22;24957;51.386;-2.352;2022-07-23T00:06:26;17.10;99.90
39255;DHT22;24957;51.386;-2.352;2022-07-23T00:08:51;17.00;99.90
39255;DHT22;24957;51.386;-2.352;2022-07-23T00:11:17;16.80;99.90
39255;DHT22;24957;51.386;-2.352;2022-07-23T00:13:43;16.70;99.90
39255;DHT22;24957;51.386;-2.352;2022-07-23T00:16:09;16.60;99.90
39255;DHT22;24957;51.386;-2.352;2022-07-23T00:18:35;16.50;99.90
39255;DHT22;24957;51.386;-2.352;2022-07-23T00:21:00;16.40;99.90
39255;DHT22;24957;51.386;-2.352;2022-07-23T00:23:29;16.40;99.90
39255;DHT22;24957;51.386;-2.352;2022-07-23T00:25:56;16.40;99.90
39255;DHT22;24957;51.386;-2.352;2022-07-23T00:28:21;16.50;99.90
39255;DHT22;24957;51.386;-2.352;2022-07-23T00:30:47;16.40;99.90
39255;DHT22;24957;51.386;-2.352;2022-07-23T00:33:13;16.40;99.90
39255;DHT22;24957;51.386;-2.352;2022-07-23T00:35:39;16.50;99.90
39255;DHT22;24957;51.386;-2.352;2022-07-23T00:38:08;16.40;99.90
39255;DHT22;24957;51.386;-2.352;2022-07-23T00:40:35;16.40;99.90
39255;DHT22;24957;51.386;-2.352;2022-07-23T00:43:01;16.30;99.90
39255;DHT22;24957;51.386;-2.352;2022-07-23T00:45:27;16.20;99.90
39255;DHT22;24957;51.386;-2.352;2022-07-23T00:47:52;16.10;99.90
39255;DHT22;24957;51.386;-2.352;2022-07-23T00:50:18;16.10;99.90
39255;DHT22;24957;51.386;-2.352;2022-07-23T00:52:43;16.20;99.90
39255;DHT22;24957;51.386;-2.352;2022-07-23T00:55:09;16.30;99.90
39255;DHT22;24957;51.386;-2.352;2022-07-23T00:57:36;16.40;99.90
39255;DHT22;24957;51.386;-2.352;2022-07-23T01:00:02;16.40;99.90
39255;DHT22;24957;51.386;-2.352;2022-07-23T01:02:28;16.50;99.90
39255;DHT22;24957;51.386;-2.352;2022-07-23T01:04:54;16.50;99.90
39255;DHT22;24957;51.386;-2.352;2022-07-23T01:07:19;16.60;99.90
39255;DHT22;24957;51.386;-2.352;2022-07-23T01:09:45;16.50;99.90
39255;DHT22;24957;51.386;-2.352;2022-07-23T01:12:11;16.60;99.90
39255;DHT22;24957;51.386;-2.352;2022-07-23T01:14:36;16.50;99.90
39255;DHT22;24957;51.386;-2.352;2022-07-23T01:17:02;16.50;99.90
39255;DHT22;24957;51.386;-2.352;2022-07-23T01:19:28;16.60;99.90
39255;DHT22;24957;51.386;-2.352;2022-07-23T01:21:53;16.60;99.90
39255;DHT22;24957;51.386;-2.352;2022-07-23T01:24:20;16.60;99.90
39255;DHT22;24957;51.386;-2.352;2022-07-23T01:26:46;16.50;99.90
39255;DHT22;24957;51.386;-2.352;2022-07-23T01:29:12;16.60;99.90
39255;DHT22;24957;51.386;-2.352;2022-07-23T01:31:37;16.60;99.90
39255;DHT22;24957;51.386;-2.352;2022-07-23T01:34:03;16.60;99.90
39255;DHT22;24957;51.386;-2.352;2022-07-23T01:36:29;16.60;99.90
39255;DHT22;24957;51.386;-2.352;2022-07-23T01:38:55;16.70;99.90
39255;DHT22;24957;51.386;-2.352;2022-07-23T01:41:21;16.70;99.90
39255;DHT22;24957;51.386;-2.352;2022-07-23T01:43:46;16.60;99.90
39255;DHT22;24957;51.386;-2.352;2022-07-23T01:46:12;16.50;99.90
39255;DHT22;24957;51.386;-2.352;2022-07-23T01:48:38;16.40;99.90
39255;DHT22;24957;51.386;-2.352;2022-07-23T01:51:04;16.40;99.90
39255;DHT22;24957;51.386;-2.352;2022-07-23T01:53:29;16.40;99.90
39255;DHT22;24957;51.386;-2.352;2022-07-23T01:55:57;16.30;99.90
39255;DHT22;24957;51.386;-2.352;2022-07-23T01:58:22;16.20;99.90
39255;DHT22;24957;51.386;-2.352;2022-07-23T02:00:48;16.20;99.90
39255;DHT22;24957;51.386;-2.352;2022-07-23T02:03:13;16.20;99.90
39255;DHT22;24957;51.386;-2.352;2022-07-23T02:05:39;16.10;99.90
39255;DHT22;24957;51.386;-2.352;2022-07-23T02:08:05;16.00;99.90
39255;DHT22;24957;51.386;-2.352;2022-07-23T02:10:30;15.80;99.90
39255;DHT22;24957;51.386;-2.352;2022-07-23T02:12:56;15.60;99.90
39255;DHT22;24957;51.386;-2.352;2022-07-23T02:15:22;15.50;99.90
39255;DHT22;24957;51.386;-2.352;2022-07-23T02:17:47;15.40;99.90
39255;DHT22;24957;51.386;-2.352;2022-07-23T02:20:13;15.30;99.90
39255;DHT22;24957;51.386;-2.352;2022-07-23T02:22:39;15.30;99.90
39255;DHT22;24957;51.386;-2.352;2022-07-23T02:25:05;15.30;99.90
39255;DHT22;24957;51.386;-2.352;2022-07-23T02:27:31;15.20;99.90
39255;DHT22;24957;51.386;-2.352;2022-07-23T02:29:56;15.20;99.90
39255;DHT22;24957;51.386;-2.352;2022-07-23T02:32:23;15.40;99.90
39255;DHT22;24957;51.386;-2.352;2022-07-23T02:34:48;15.50;99.90
39255;DHT22;24957;51.386;-2.352;2022-07-23T02:37:14;15.30;99.90
39255;DHT22;24957;51.386;-2.352;2022-07-23T02:39:40;15.20;99.90
39255;DHT22;24957;51.386;-2.352;2022-07-23T02:42:05;15.10;99.90
39255;DHT22;24957;51.386;-2.352;2022-07-23T02:44:31;15.20;99.90
39255;DHT22;24957;51.386;-2.352;2022-07-23T02:46:56;15.20;99.90
39255;DHT22;24957;51.386;-2.352;2022-07-23T02:49:22;15.20;99.90
39255;DHT22;24957;51.386;-2.352;2022-07-23T02:51:48;15.20;99.90
39255;DHT22;24957;51.386;-2.352;2022-07-23T02:54:13;15.10;99.90
39255;DHT22;24957;51.386;-2.352;2022-07-23T02:56:39;15.10;99.90
39255;DHT22;24957;51.386;-2.352;2022-07-23T02:59:05;15.10;99.90
39255;DHT22;24957;51.386;-2.352;2022-07-23T03:01:30;15.00;99.90
39255;DHT22;24957;51.386;-2.352;2022-07-23T03:03:56;15.00;99.90
39255;DHT22;24957;51.386;-2.352;2022-07-23T03:06:22;15.00;99.90
39255;DHT22;24957;51.386;-2.352;2022-07-23T03:08:47;15.00;99.90
39255;DHT22;24957;51.386;-2.352;2022-07-23T03:11:13;15.00;99.90
39255;DHT22;24957;51.386;-2.352;2022-07-23T03:13:39;15.00;99.90
39255;DHT22;24957;51.386;-2.352;2022-07-23T03:16:04;15.00;99.90
39255;DHT22;24957;51.386;-2.352;2022-07-23T03:18:30;14.90;99.90
39255;DHT22;24957;51.386;-2.352;2022-07-23T03:20:56;15.00;99.90
39255;DHT22;24957;51.386;-2.352;2022-07-23T03:23:21;15.00;99.90
39255;DHT22;24957;51.386;-2.352;2022-07-23T03:25:47;15.10;99.90
39255;DHT22;24957;51.386;-2.352;2022-07-23T03:28:16;15.10;99.90
39255;DHT22;24957;51.386;-2.352;2022-07-23T03:30:42;15.00;99.90
39255;DHT22;24957;51.386;-2.352;2022-07-23T03:33:08;15.00;99.90
39255;DHT22;24957;51.386;-2.352;2022-07-23T03:35:34;15.00;99.90
39255;DHT22;24957;51.386;-2.352;2022-07-23T03:37:59;15.10;99.90
39255;DHT22;24957;51.386;-2.352;2022-07-23T03:40:25;15.10;99.90
39255;DHT22;24957;51.386;-2.352;2022-07-23T03:42:51;15.00;99.90
39255;DHT22;24957;51.386;-2.352;2022-07-23T03:45:16;15.00;99.90
39255;DHT22;24957;51.386;-2.352;2022-07-23T03:47:42;15.00;99.90
39255;DHT22;24957;51.386;-2.352;2022-07-23T03:50:08;15.10;99.90
39255;DHT22;24957;51.386;-2.352;2022-07-23T03:52:34;15.00;99.90
39255;DHT22;24957;51.386;-2.352;2022-07-23T03:55:00;14.90;99.90
39255;DHT22;24957;51.386;-2.352;2022-07-23T03:57:25;15.00;99.90
39255;DHT22;24957;51.386;-2.352;2022-07-23T03:59:51;14.90;99.90
39255;DHT22;24957;51.386;-2.352;2022-07-23T04:02:16;14.90;99.90
39255;DHT22;24957;51.386;-2.352;2022-07-23T04:04:42;14.80;99.90
39255;DHT22;24957;51.386;-2.352;2022-07-23T04:07:07;14.80;99.90
39255;DHT22;24957;51.386;-2.352;2022-07-23T04:09:33;14.80;99.90
39255;DHT22;24957;51.386;-2.352;2022-07-23T04:11:59;14.70;99.90
39255;DHT22;24957;51.386;-2.352;2022-07-23T04:14:25;14.70;99.90
39255;DHT22;24957;51.386;-2.352;2022-07-23T04:16:50;14.60;99.90
39255;DHT22;24957;51.386;-2.352;2022-07-23T04:19:16;14.60;99.90
39255;DHT22;24957;51.386;-2.352;2022-07-23T04:21:41;14.60;99.90
39255;DHT22;24957;51.386;-2.352;2022-07-23T04:24:07;14.60;99.90
39255;DHT22;24957;51.386;-2.352;2022-07-23T04:26:32;14.60;99.90
39255;DHT22;24957;51.386;-2.352;2022-07-23T04:28:58;14.60;99.90
39255;DHT22;24957;51.386;-2.352;2022-07-23T04:31:24;14.60;99.90
39255;DHT22;24957;51.386;-2.352;2022-07-23T04:33:49;14.60;99.90
39255;DHT22;24957;51.386;-2.352;2022-07-23T04:36:15;14.60;99.90
39255;DHT22;24957;51.386;-2.352;2022-07-23T04:38:40;14.70;99.90
39255;DHT22;24957;51.386;-2.352;2022-07-23T04:41:06;14.70;99.90
39255;DHT22;24957;51.386;-2.352;2022-07-23T04:43:32;14.70;99.90
39255;DHT22;24957;51.386;-2.352;2022-07-23T04:45:57;14.70;99.90
39255;DHT22;24957;51.386;-2.352;2022-07-23T04:48:23;14.70;99.90
39255;DHT22;24957;51.386;-2.352;2022-07-23T04:50:48;14.70;99.90
39255;DHT22;24957;51.386;-2.352;2022-07-23T04:53:14;14.70;99.90
39255;DHT22;24957;51.386;-2.352;2022-07-23T04:55:40;14.80;99.90
39255;DHT22;24957;51.386;-2.352;2022-07-23T04:58:05;14.80;99.90
39255;DHT22;24957;51.386;-2.352;2022-07-23T05:00:31;15.00;99.90
39255;DHT22;24957;51.386;-2.352;2022-07-23T05:02:56;15.10;99.90
39255;DHT22;24957;51.386;-2.352;2022-07-23T05:05:22;15.20;99.90
39255;DHT22;24957;51.386;-2.352;2022-07-23T05:07:47;15.30;99.90
39255;DHT22;24957;51.386;-2.352;2022-07-23T05:10:13;15.30;99.90
39255;DHT22;24957;51.386;-2.352;2022-07-23T05:12:39;15.40;99.90
39255;DHT22;24957;51.386;-2.352;2022-07-23T05:15:04;15.50;99.90
39255;DHT22;24957;51.386;-2.352;2022-07-23T05:17:30;15.60;99.90
39255;DHT22;24957;51.386;-2.352;2022-07-23T05:19:56;15.70;99.90
39255;DHT22;24957;51.386;-2.352;2022-07-23T05:22:21;15.80;99.90
39255;DHT22;24957;51.386;-2.352;2022-07-23T05:24:47;15.80;99.90
39255;DHT22;24957;51.386;-2.352;2022-07-23T05:27:13;15.60;99.90
39255;DHT22;24957;51.386;-2.352;2022-07-23T05:29:38;15.50;99.90
39255;DHT22;24957;51.386;-2.352;2022-07-23T05:32:04;15.40;99.90
39255;DHT22;24957;51.386;-2.352;2022-07-23T05:34:30;15.50;99.90
39255;DHT22;24957;51.386;-2.352;2022-07-23T05:36:55;15.60;99.90
39255;DHT22;24957;51.386;-2.352;2022-07-23T05:39:21;15.70;99.90
39255;DHT22;24957;51.386;-2.352;2022-07-23T05:41:46;16.00;99.90
39255;DHT22;24957;51.386;-2.352;2022-07-23T05:44:12;16.20;99.90
39255;DHT22;24957;51.386;-2.352;2022-07-23T05:46:37;16.40;99.90
39255;DHT22;24957;51.386;-2.352;2022-07-23T05:49:03;16.50;99.90
39255;DHT22;24957;51.386;-2.352;2022-07-23T05:51:29;16.50;99.90
39255;DHT22;24957;51.386;-2.352;2022-07-23T05:53:54;16.60;99.90
39255;DHT22;24957;51.386;-2.352;2022-07-23T05:56:20;16.70;99.90
39255;DHT22;24957;51.386;-2.352;2022-07-23T05:58:46;16.80;99.90
39255;DHT22;24957;51.386;-2.352;2022-07-23T06:01:12;16.90;99.90
39255;DHT22;24957;51.386;-2.352;2022-07-23T06:03:38;16.90;99.90
39255;DHT22;24957;51.386;-2.352;2022-07-23T06:06:04;16.80;99.90
39255;DHT22;24957;51.386;-2.352;2022-07-23T06:08:30;16.60;99.90
39255;DHT22;24957;51.386;-2.352;2022-07-23T06:10:55;16.50;99.90
39255;DHT22;24957;51.386;-2.352;2022-07-23T06:13:21;16.50;99.90
39255;DHT22;24957;51.386;-2.352;2022-07-23T06:15:47;16.60;99.90
39255;DHT22;24957;51.386;-2.352;2022-07-23T06:18:12;16.70;99.90
39255;DHT22;24957;51.386;-2.352;2022-07-23T06:20:38;16.80;99.90
39255;DHT22;24957;51.386;-2.352;2022-07-23T06:23:03;16.60;99.90
39255;DHT22;24957;51.386;-2.352;2022-07-23T06:25:29;16.60;99.90
39255;DHT22;24957;51.386;-2.352;2022-07-23T06:27:54;16.60;99.90
39255;DHT22;24957;51.386;-2.352;2022-07-23T06:30:20;16.60;99.90
39255;DHT22;24957;51.386;-2.352;2022-07-23T06:32:46;16.70;99.90
39255;DHT22;24957;51.386;-2.352;2022-07-23T06:35:12;16.70;99.90
39255;DHT22;24957;51.386;-2.352;2022-07-23T06:37:37;16.70;99.90
39255;DHT22;24957;51.386;-2.352;2022-07-23T06:40:03;16.80;99.90
39255;DHT22;24957;51.386;-2.352;2022-07-23T06:42:28;16.80;99.90
39255;DHT22;24957;51.386;-2.352;2022-07-23T06:44:54;16.70;99.90
39255;DHT22;24957;51.386;-2.352;2022-07-23T06:47:20;16.80;99.90
39255;DHT22;24957;51.386;-2.352;2022-07-23T06:49:45;17.00;99.90
39255;DHT22;24957;51.386;-2.352;2022-07-23T06:52:11;17.00;99.90
39255;DHT22;24957;51.386;-2.352;2022-07-23T06:54:36;16.90;99.90
39255;DHT22;24957;51.386;-2.352;2022-07-23T06:57:02;17.10;99.90
39255;DHT22;24957;51.386;-2.352;2022-07-23T06:59:28;17.30;99.90
39255;DHT22;24957;51.386;-2.352;2022-07-23T07:01:53;17.60;99.90
39255;DHT22;24957;51.386;-2.352;2022-07-23T07:04:19;17.80;99.90
39255;DHT22;24957;51.386;-2.352;2022-07-23T07:06:44;18.00;99.90
39255;DHT22;24957;51.386;-2.352;2022-07-23T07:09:10;18.10;99.90
39255;DHT22;24957;51.386;-2.352;2022-07-23T07:11:35;18.00;99.90
39255;DHT22;24957;51.386;-2.352;2022-07-23T07:14:01;18.10;99.90
39255;DHT22;24957;51.386;-2.352;2022-07-23T07:16:27;18.50;99.90
39255;DHT22;24957;51.386;-2.352;2022-07-23T07:18:52;18.60;99.90
39255;DHT22;24957;51.386;-2.352;2022-07-23T07:21:18;18.90;99.90
39255;DHT22;24957;51.386;-2.352;2022-07-23T07:23:43;19.10;99.90
39255;DHT22;24957;51.386;-2.352;2022-07-23T07:26:09;19.20;99.90
39255;DHT22;24957;51.386;-2.352;2022-07-23T07:28:34;19.40;99.90
39255;DHT22;24957;51.386;-2.352;2022-07-23T07:31:00;19.40;99.90
39255;DHT22;24957;51.386;-2.352;2022-07-23T07:33:26;19.60;99.90
39255;DHT22;24957;51.386;-2.352;2022-07-23T07:35:51;19.80;99.90
39255;DHT22;24957;51.386;-2.352;2022-07-23T07:38:17;19.70;99.90
39255;DHT22;24957;51.386;-2.352;2022-07-23T07:40:42;20.10;99.90
39255;DHT22;24957;51.386;-2.352;2022-07-23T07:43:08;20.20;99.90
39255;DHT22;24957;51.386;-2.352;2022-07-23T07:45:34;20.50;99.90
39255;DHT22;24957;51.386;-2.352;2022-07-23T07:47:59;20.70;99.90
39255;DHT22;24957;51.386;-2.352;2022-07-23T07:50:25;20.40;99.90
39255;DHT22;24957;51.386;-2.352;2022-07-23T07:52:50;20.10;99.90
39255;DHT22;24957;51.386;-2.352;2022-07-23T07:55:16;19.90;99.90
39255;DHT22;24957;51.386;-2.352;2022-07-23T07:57:41;19.90;99.90
39255;DHT22;24957;51.386;-2.352;2022-07-23T08:00:08;19.80;99.90
39255;DHT22;24957;51.386;-2.352;2022-07-23T08:05:06;19.90;99.90
39255;DHT22;24957;51.386;-2.352;2022-07-23T08:07:31;19.70;99.90
39255;DHT22;24957;51.386;-2.352;2022-07-23T08:09:57;19.80;99.90
39255;DHT22;24957;51.386;-2.352;2022-07-23T08:12:22;20.10;99.90
39255;DHT22;24957;51.386;-2.352;2022-07-23T08:14:48;20.10;99.90
39255;DHT22;24957;51.386;-2.352;2022-07-23T08:17:13;20.30;99.90
39255;DHT22;24957;51.386;-2.352;2022-07-23T08:19:39;20.20;99.90
39255;DHT22;24957;51.386;-2.352;2022-07-23T08:22:05;20.20;99.90
39255;DHT22;24957;51.386;-2.352;2022-07-23T08:24:30;20.30;99.90
39255;DHT22;24957;51.386;-2.352;2022-07-23T08:26:56;20.30;99.90
39255;DHT22;24957;51.386;-2.352;2022-07-23T08:29:21;20.50;99.90
39255;DHT22;24957;51.386;-2.352;2022-07-23T08:31:47;20.80;99.90
39255;DHT22;24957;51.386;-2.352;2022-07-23T08:34:12;21.20;99.90
39255;DHT22;24957;51.386;-2.352;2022-07-23T08:36:38;21.60;99.90
39255;DHT22;24957;51.386;-2.352;2022-07-23T08:39:04;21.80;99.90
39255;DHT22;24957;51.386;-2.352;2022-07-23T08:41:29;22.00;99.90
39255;DHT22;24957;51.386;-2.352;2022-07-23T08:43:55;22.10;99.90
39255;DHT22;24957;51.386;-2.352;2022-07-23T08:46:20;22.20;99.50
39255;DHT22;24957;51.386;-2.352;2022-07-23T08:48:47;22.10;99.50
39255;DHT22;24957;51.386;-2.352;2022-07-23T08:51:13;22.10;98.30
39255;DHT22;24957;51.386;-2.352;2022-07-23T08:53:39;22.10;97.70
39255;DHT22;24957;51.386;-2.352;2022-07-23T08:56:06;22.10;96.00
39255;DHT22;24957;51.386;-2.352;2022-07-23T08:58:32;22.00;96.60
39255;DHT22;24957;51.386;-2.352;2022-07-23T09:00:58;22.30;96.40
39255;DHT22;24957;51.386;-2.352;2022-07-23T09:03:28;22.40;96.70
39255;DHT22;24957;51.386;-2.352;2022-07-23T09:05:54;22.60;95.90
39255;DHT22;24957;51.386;-2.352;2022-07-23T09:08:22;22.80;95.60
39255;DHT22;24957;51.386;-2.352;2022-07-23T09:10:53;23.00;95.30
39255;DHT22;24957;51.386;-2.352;2022-07-23T09:15:51;23.10;95.10
39255;DHT22;24957;51.386;-2.352;2022-07-23T09:18:17;23.20;96.00
39255;DHT22;24957;51.386;-2.352;2022-07-23T09:20:45;23.10;96.50
39255;DHT22;24957;51.386;-2.352;2022-07-23T09:23:11;23.10;96.70
39255;DHT22;24957;51.386;-2.352;2022-07-23T09:25:36;23.00;97.20
39255;DHT22;24957;51.386;-2.352;2022-07-23T09:28:03;22.90;97.20
39255;DHT22;24957;51.386;-2.352;2022-07-23T09:30:29;22.90;96.10
39255;DHT22;24957;51.386;-2.352;2022-07-23T09:33:04;22.60;98.00
39255;DHT22;24957;51.386;-2.352;2022-07-23T09:35:42;22.10;99.90
39255;DHT22;24957;51.386;-2.352;2022-07-23T09:38:08;22.10;99.90
39255;DHT22;24957;51.386;-2.352;2022-07-23T09:40:34;22.20;99.90
39255;DHT22;24957;51.386;-2.352;2022-07-23T09:42:59;22.20;99.90
39255;DHT22;24957;51.386;-2.352;2022-07-23T09:45:25;22.50;99.90
39255;DHT22;24957;51.386;-2.352;2022-07-23T09:47:51;22.80;99.50
39255;DHT22;24957;51.386;-2.352;2022-07-23T09:50:17;23.10;98.60
39255;DHT22;24957;51.386;-2.352;2022-07-23T09:52:46;23.30;97.30
39255;DHT22;24957;51.386;-2.352;2022-07-23T09:55:13;23.20;97.00
39255;DHT22;24957;51.386;-2.352;2022-07-23T09:57:40;23.10;97.40
39255;DHT22;24957;51.386;-2.352;2022-07-23T10:00:06;22.80;98.50
39255;DHT22;24957;51.386;-2.352;2022-07-23T10:02:33;22.70;98.40
39255;DHT22;24957;51.386;-2.352;2022-07-23T10:04:59;22.50;99.20
39255;DHT22;24957;51.386;-2.352;2022-07-23T10:07:26;22.70;98.80
39255;DHT22;24957;51.386;-2.352;2022-07-23T10:09:52;22.90;97.60
39255;DHT22;24957;51.386;-2.352;2022-07-23T10:12:18;23.00;97.20
39255;DHT22;24957;51.386;-2.352;2022-07-23T10:14:57;23.00;96.10
39255;DHT22;24957;51.386;-2.352;2022-07-23T10:17:23;22.80;96.80
39255;DHT22;24957;51.386;-2.352;2022-07-23T10:19:49;22.80;97.30
39255;DHT22;24957;51.386;-2.352;2022-07-23T10:22:19;23.20;95.90
39255;DHT22;24957;51.386;-2.352;2022-07-23T10:24:51;23.30;95.20
39255;DHT22;24957;51.386;-2.352;2022-07-23T10:29:58;23.50;93.90
39255;DHT22;24957;51.386;-2.352;2022-07-23T10:32:42;23.60;93.70
39255;DHT22;24957;51.386;-2.352;2022-07-23T10:35:29;23.40;93.70
39255;DHT22;24957;51.386;-2.352;2022-07-23T10:38:00;23.20;93.80
39255;DHT22;24957;51.386;-2.352;2022-07-23T10:40:26;23.20;95.00
39255;DHT22;24957;51.386;-2.352;2022-07-23T10:42:54;23.30;94.70
39255;DHT22;24957;51.386;-2.352;2022-07-23T10:47:49;23.40;94.80
39255;DHT22;24957;51.386;-2.352;2022-07-23T10:50:26;23.40;93.90
39255;DHT22;24957;51.386;-2.352;2022-07-23T10:57:54;23.10;95.00
39255;DHT22;24957;51.386;-2.352;2022-07-23T11:00:20;23.00;95.80
39255;DHT22;24957;51.386;-2.352;2022-07-23T11:02:47;23.00;95.50
39255;DHT22;24957;51.386;-2.352;2022-07-23T11:05:13;22.80;96.20
39255;DHT22;24957;51.386;-2.352;2022-07-23T11:11:07;22.50;98.40
39255;DHT22;24957;51.386;-2.352;2022-07-23T11:31:52;23.00;97.20
39255;DHT22;24957;51.386;-2.352;2022-07-23T11:36:56;23.00;97.70
39255;DHT22;24957;51.386;-2.352;2022-07-23T11:39:21;23.40;96.50
39255;DHT22;24957;51.386;-2.352;2022-07-23T11:41:49;23.50;96.20
39255;DHT22;24957;51.386;-2.352;2022-07-23T11:46:54;23.10;96.90
39255;DHT22;24957;51.386;-2.352;2022-07-23T11:49:20;23.10;97.40
39255;DHT22;24957;51.386;-2.352;2022-07-23T11:51:46;23.10;97.20
39255;DHT22;24957;51.386;-2.352;2022-07-23T11:54:11;23.20;97.40
39255;DHT22;24957;51.386;-2.352;2022-07-23T11:56:37;23.40;96.70
39255;DHT22;24957;51.386;-2.352;2022-07-23T11:59:02;23.80;95.50
39255;DHT22;24957;51.386;-2.352;2022-07-23T12:01:28;23.70;94.90
39255;DHT22;24957;51.386;-2.352;2022-07-23T12:03:54;23.60;95.60
39255;DHT22;24957;51.386;-2.352;2022-07-23T12:06:19;23.70;95.40
39255;DHT22;24957;51.386;-2.352;2022-07-23T12:08:45;23.70;95.10
39255;DHT22;24957;51.386;-2.352;2022-07-23T12:11:11;23.80;94.40
39255;DHT22;24957;51.386;-2.352;2022-07-23T12:13:37;23.90;94.50
39255;DHT22;24957;51.386;-2.352;2022-07-23T12:16:03;24.10;94.00
39255;DHT22;24957;51.386;-2.352;2022-07-23T12:18:30;24.20;94.40
39255;DHT22;24957;51.386;-2.352;2022-07-23T12:20:56;24.30;94.20
39255;DHT22;24957;51.386;-2.352;2022-07-23T12:23:23;24.30;94.10
39255;DHT22;24957;51.386;-2.352;2022-07-23T12:25:49;24.20;93.60
39255;DHT22;24957;51.386;-2.352;2022-07-23T12:28:16;24.30;93.70
39255;DHT22;24957;51.386;-2.352;2022-07-23T12:30:46;24.30;93.60
39255;DHT22;24957;51.386;-2.352;2022-07-23T12:33:13;24.20;93.50
39255;DHT22;24957;51.386;-2.352;2022-07-23T12:35:41;24.20;93.50
39255;DHT22;24957;51.386;-2.352;2022-07-23T12:38:11;23.90;93.90
39255;DHT22;24957;51.386;-2.352;2022-07-23T12:40:44;23.40;95.40
39255;DHT22;24957;51.386;-2.352;2022-07-23T12:43:11;23.20;96.50
39255;DHT22;24957;51.386;-2.352;2022-07-23T12:46:10;23.10;97.80
39255;DHT22;24957;51.386;-2.352;2022-07-23T12:48:29;23.40;97.30
39255;DHT22;24957;51.386;-2.352;2022-07-23T12:50:56;23.50;96.80
39255;DHT22;24957;51.386;-2.352;2022-07-23T12:53:45;23.60;96.20
39255;DHT22;24957;51.386;-2.352;2022-07-23T12:56:10;23.20;97.30
39255;DHT22;24957;51.386;-2.352;2022-07-23T12:58:55;23.20;98.00
39255;DHT22;24957;51.386;-2.352;2022-07-23T13:03:59;23.10;98.90
39255;DHT22;24957;51.386;-2.352;2022-07-23T13:06:26;23.30;97.90
39255;DHT22;24957;51.386;-2.352;2022-07-23T13:08:52;23.40;97.60
39255;DHT22;24957;51.386;-2.352;2022-07-23T13:11:17;23.40;97.70
39255;DHT22;24957;51.386;-2.352;2022-07-23T13:13:43;23.40;97.80
39255;DHT22;24957;51.386;-2.352;2022-07-23T13:16:09;23.60;97.20
39255;DHT22;24957;51.386;-2.352;2022-07-23T13:18:34;23.60;97.00
39255;DHT22;24957;51.386;-2.352;2022-07-23T13:21:00;23.60;96.90
39255;DHT22;24957;51.386;-2.352;2022-07-23T13:23:25;23.50;97.20
39255;DHT22;24957;51.386;-2.352;2022-07-23T13:25:51;23.30;97.90
39255;DHT22;24957;51.386;-2.352;2022-07-23T13:28:17;23.30;98.50
39255;DHT22;24957;51.386;-2.352;2022-07-23T13:30:44;23.30;98.60
39255;DHT22;24957;51.386;-2.352;2022-07-23T13:33:10;23.30;98.50
39255;DHT22;24957;51.386;-2.352;2022-07-23T13:35:36;23.00;99.80
39255;DHT22;24957;51.386;-2.352;2022-07-23T13:38:05;22.90;99.90
39255;DHT22;24957;51.386;-2.352;2022-07-23T13:40:35;23.10;99.90
39255;DHT22;24957;51.386;-2.352;2022-07-23T13:43:01;23.40;99.50
39255;DHT22;24957;51.386;-2.352;2022-07-23T13:45:27;23.50;98.90
39255;DHT22;24957;51.386;-2.352;2022-07-23T13:47:53;23.90;97.40
39255;DHT22;24957;51.386;-2.352;2022-07-23T13:50:18;24.00;97.30
39255;DHT22;24957;51.386;-2.352;2022-07-23T13:52:44;24.20;96.10
39255;DHT22;24957;51.386;-2.352;2022-07-23T13:55:09;24.30;95.60
39255;DHT22;24957;51.386;-2.352;2022-07-23T13:57:35;24.20;95.70
39255;DHT22;24957;51.386;-2.352;2022-07-23T14:00:01;24.30;95.20
39255;DHT22;24957;51.386;-2.352;2022-07-23T14:02:28;24.50;94.60
39255;DHT22;24957;51.386;-2.352;2022-07-23T14:04:54;24.10;95.60
39255;DHT22;24957;51.386;-2.352;2022-07-23T14:07:19;24.20;95.60
39255;DHT22;24957;51.386;-2.352;2022-07-23T14:09:45;24.50;94.90
39255;DHT22;24957;51.386;-2.352;2022-07-23T14:12:11;24.50;94.00
39255;DHT22;24957;51.386;-2.352;2022-07-23T14:14:36;24.10;95.50
39255;DHT22;24957;51.386;-2.352;2022-07-23T14:17:02;24.10;96.00
39255;DHT22;24957;51.386;-2.352;2022-07-23T14:19:28;24.00;95.80
39255;DHT22;24957;51.386;-2.352;2022-07-23T14:21:54;24.10;95.70
39255;DHT22;24957;51.386;-2.352;2022-07-23T14:24:19;24.00;96.40
39255;DHT22;24957;51.386;-2.352;2022-07-23T14:26:45;23.90;96.50
39255;DHT22;24957;51.386;-2.352;2022-07-23T14:29:11;24.10;95.70
39255;DHT22;24957;51.386;-2.352;2022-07-23T14:31:37;23.70;95.80
39255;DHT22;24957;51.386;-2.352;2022-07-23T14:34:02;23.70;96.40
39255;DHT22;24957;51.386;-2.352;2022-07-23T14:36:28;23.90;96.60
39255;DHT22;24957;51.386;-2.352;2022-07-23T14:38:54;24.10;95.40
39255;DHT22;24957;51.386;-2.352;2022-07-23T14:41:19;24.10;95.50
39255;DHT22;24957;51.386;-2.352;2022-07-23T14:43:45;24.20;94.20
39255;DHT22;24957;51.386;-2.352;2022-07-23T14:46:12;24.30;94.70
39255;DHT22;24957;51.386;-2.352;2022-07-23T14:48:37;24.30;94.90
39255;DHT22;24957;51.386;-2.352;2022-07-23T14:51:03;24.20;95.30
39255;DHT22;24957;51.386;-2.352;2022-07-23T14:53:29;23.90;95.50
39255;DHT22;24957;51.386;-2.352;2022-07-23T14:55:54;23.70;96.80
39255;DHT22;24957;51.386;-2.352;2022-07-23T14:58:22;23.60;97.60
39255;DHT22;24957;51.386;-2.352;2022-07-23T15:00:48;23.70;97.20
39255;DHT22;24957;51.386;-2.352;2022-07-23T15:03:13;23.70;97.10
39255;DHT22;24957;51.386;-2.352;2022-07-23T15:05:39;23.50;97.50
39255;DHT22;24957;51.386;-2.352;2022-07-23T15:08:05;23.20;98.60
39255;DHT22;24957;51.386;-2.352;2022-07-23T15:10:30;23.00;99.80
39255;DHT22;24957;51.386;-2.352;2022-07-23T15:12:56;22.90;99.90
39255;DHT22;24957;51.386;-2.352;2022-07-23T15:15:21;23.10;99.90
39255;DHT22;24957;51.386;-2.352;2022-07-23T15:17:47;23.20;99.90
39255;DHT22;24957;51.386;-2.352;2022-07-23T15:20:12;23.40;99.40
39255;DHT22;24957;51.386;-2.352;2022-07-23T15:22:38;23.40;99.00
39255;DHT22;24957;51.386;-2.352;2022-07-23T15:25:04;23.30;99.30
39255;DHT22;24957;51.386;-2.352;2022-07-23T15:27:29;23.20;99.60
39255;DHT22;24957;51.386;-2.352;2022-07-23T15:29:55;23.20;99.90
39255;DHT22;24957;51.386;-2.352;2022-07-23T15:32:21;23.20;99.90
39255;DHT22;24957;51.386;-2.352;2022-07-23T15:34:50;23.10;99.90
39255;DHT22;24957;51.386;-2.352;2022-07-23T15:37:15;23.00;99.90
39255;DHT22;24957;51.386;-2.352;2022-07-23T15:39:41;22.80;99.90
39255;DHT22;24957;51.386;-2.352;2022-07-23T15:42:07;22.80;99.90
39255;DHT22;24957;51.386;-2.352;2022-07-23T15:44:32;22.70;99.90
39255;DHT22;24957;51.386;-2.352;2022-07-23T15:46:58;22.70;99.90
39255;DHT22;24957;51.386;-2.352;2022-07-23T15:49:23;22.70;99.90
39255;DHT22;24957;51.386;-2.352;2022-07-23T15:51:49;22.80;99.90
39255;DHT22;24957;51.386;-2.352;2022-07-23T15:54:15;22.90;99.90